Time;durP1;ratioP1;P1;durP2;ratioP2;P2;SDS_P1;SDS_P2;PMS_P1;PMS_P2;Temp;Humidity;BMP_temperature;BMP_pressure;BME280_temperature;BME280_humidity;BME280_pressure;Samples;Min_cycle;Max_cycle;Signal;HPM_P1;HPM_P2
2024/01/20 00:01:29;;;;;;;4.30;2.35;;;;;;;1.00;100.00;101290.38;4972801;28;20178;-94
2024/01/20 00:03:54;;;;;;;3.67;2.00;;;;;;;0.97;100.00;101293.78;4973202;28;20066;-94
2024/01/20 00:06:20;;;;;;;3.35;2.70;;;;;;;1.10;100.00;101294.59;4974482;28;20504;-92
2024/01/20 00:08:45;;;;;;;5.43;2.22;;;;;;;1.24;100.00;101297.94;4973279;28;20385;-93
2024/01/20 00:11:10;;;;;;;8.07;2.53;;;;;;;1.31;99.62;101293.63;4973304;28;20033;-94
2024/01/20 00:13:36;;;;;;;5.35;2.08;;;;;;;1.30;98.92;101281.78;4974457;28;20097;-93
2024/01/20 00:16:01;;;;;;;5.50;2.50;;;;;;;1.41;99.03;101290.19;4974200;28;20066;-94
2024/01/20 00:18:27;;;;;;;5.03;2.33;;;;;;;1.46;98.50;101292.69;4973369;28;20060;-93
2024/01/20 00:20:52;;;;;;;5.65;2.17;;;;;;;1.52;98.16;101296.94;4972944;28;20027;-93
2024/01/20 00:23:18;;;;;;;7.47;1.70;;;;;;;1.54;97.75;101301.16;4974025;28;20031;-93
2024/01/20 00:25:43;;;;;;;2.65;1.75;;;;;;;1.70;97.47;101300.16;4972779;28;20030;-93
2024/01/20 00:28:09;;;;;;;2.35;1.90;;;;;;;1.72;97.24;101297.63;4974188;28;20593;-94
2024/01/20 00:30:34;;;;;;;2.95;2.08;;;;;;;1.92;95.65;101305.94;4974164;28;20524;-94
2024/01/20 00:33:00;;;;;;;5.97;1.27;;;;;;;2.00;94.87;101294.84;4972819;28;20051;-94
2024/01/20 00:35:25;;;;;;;5.20;1.30;;;;;;;1.91;94.97;101300.88;4974015;28;20077;-94
2024/01/20 00:37:51;;;;;;;6.38;1.45;;;;;;;1.91;95.69;101305.97;4973460;28;20027;-93
2024/01/20 00:40:16;;;;;;;3.80;1.10;;;;;;;1.85;95.33;101295.81;4973444;28;20094;-93
2024/01/20 00:42:42;;;;;;;2.95;1.15;;;;;;;1.99;94.79;101301.66;4973939;28;20541;-93
2024/01/20 00:45:07;;;;;;;5.53;0.93;;;;;;;1.93;95.04;101304.28;4972482;28;20023;-93
2024/01/20 00:47:34;;;;;;;5.35;1.40;;;;;;;1.90;96.45;101302.59;4972694;28;20026;-93
2024/01/20 00:49:59;;;;;;;4.20;1.15;;;;;;;1.92;95.98;101294.91;4973908;28;20019;-94
2024/01/20 00:52:25;;;;;;;6.93;1.20;;;;;;;2.07;95.83;101304.13;4972407;28;20385;-93
2024/01/20 00:54:51;;;;;;;2.60;1.40;;;;;;;1.94;96.60;101290.66;4975640;28;20038;-94
2024/01/20 00:57:16;;;;;;;5.97;1.35;;;;;;;1.97;96.58;101295.72;4976293;28;20030;-93
2024/01/20 00:59:41;;;;;;;3.17;1.10;;;;;;;2.08;96.68;101293.94;4976473;28;20027;-94
2024/01/20 01:02:07;;;;;;;2.70;1.20;;;;;;;2.01;97.62;101296.56;4976040;28;20031;-93
2024/01/20 01:04:32;;;;;;;4.00;1.20;;;;;;;1.88;97.68;101296.66;4977594;28;20034;-93
2024/01/20 01:06:57;;;;;;;2.95;1.40;;;;;;;1.93;98.58;101304.28;4977463;28;20054;-93
2024/01/20 01:09:23;;;;;;;1.70;1.13;;;;;;;1.79;99.14;101308.63;4977364;28;20022;-94
2024/01/20 01:11:48;;;;;;;3.95;1.10;;;;;;;1.83;99.91;101307.72;4977461;28;20029;-93
2024/01/20 01:14:14;;;;;;;4.03;1.08;;;;;;;1.93;98.92;101319.53;4977361;28;20113;-93
2024/01/20 01:16:39;;;;;;;5.38;1.13;;;;;;;2.01;97.99;101317.78;4976509;28;20037;-93
2024/01/20 01:19:04;;;;;;;2.20;1.23;;;;;;;2.11;97.05;101314.28;4977119;28;20031;-93
2024/01/20 01:21:30;;;;;;;3.45;1.55;;;;;;;2.09;96.40;101304.97;4977299;28;20074;-93
2024/01/20 01:23:55;;;;;;;2.30;1.25;;;;;;;2.12;96.33;101298.16;4975246;28;20487;-93
2024/01/20 01:26:22;;;;;;;4.63;1.98;;;;;;;2.23;95.59;101297.22;4975119;28;20074;-94
2024/01/20 01:28:47;;;;;;;3.50;1.27;;;;;;;2.13;95.56;101297.28;4976403;28;20031;-94
2024/01/20 01:31:13;;;;;;;4.43;1.70;;;;;;;2.21;95.62;101289.59;4975442;28;20066;-93
2024/01/20 01:33:38;;;;;;;3.85;1.70;;;;;;;2.12;96.75;101290.53;4976345;28;20509;-94
2024/01/20 01:36:04;;;;;;;4.15;1.50;;;;;;;2.18;96.26;101283.69;4975091;28;20119;-93
2024/01/20 01:38:30;;;;;;;5.88;1.50;;;;;;;2.07;96.53;101277.00;4976301;28;20027;-93
2024/01/20 01:40:55;;;;;;;5.25;1.30;;;;;;;2.14;96.62;101288.78;4974959;28;20037;-94
2024/01/20 01:43:21;;;;;;;4.38;1.42;;;;;;;2.13;96.63;101287.09;4975041;28;20026;-94
2024/01/20 01:45:46;;;;;;;3.10;1.20;;;;;;;2.11;97.45;101278.63;4975090;28;20119;-94
2024/01/20 01:48:12;;;;;;;6.18;1.52;;;;;;;2.26;96.77;101287.00;4975121;28;20474;-93
2024/01/20 01:50:37;;;;;;;2.90;1.10;;;;;;;2.28;95.72;101280.19;4975839;28;20398;-94
2024/01/20 01:53:04;;;;;;;4.60;1.20;;;;;;;2.28;95.55;101275.09;4975829;28;20029;-94
2024/01/20 01:55:31;;;;;;;2.75;1.10;;;;;;;2.31;95.42;101272.50;4975839;28;20031;-92
2024/01/20 01:57:59;;;;;;;1.38;0.93;;;;;;;2.37;94.78;101279.28;4975738;28;20035;-93
2024/01/20 02:00:25;;;;;;;7.15;1.30;;;;;;;2.42;95.15;101277.50;4974664;28;20037;-94
2024/01/20 02:02:51;;;;;;;5.25;1.02;;;;;;;2.42;95.84;101280.91;4975796;28;20102;-93
2024/01/20 02:05:16;;;;;;;4.50;1.38;;;;;;;2.41;95.53;101279.19;4974185;28;20038;-93
2024/01/20 02:07:42;;;;;;;4.85;1.10;;;;;;;2.42;95.57;101277.50;4975799;28;20023;-93
2024/01/20 02:10:09;;;;;;;4.53;1.00;;;;;;;2.37;96.20;101279.28;4975611;28;20030;-94
2024/01/20 02:12:35;;;;;;;6.05;0.95;;;;;;;2.31;96.89;101282.69;4975542;28;20072;-93
2024/01/20 02:15:01;;;;;;;2.05;0.95;;;;;;;2.32;97.06;101289.50;4975419;28;20034;-94
2024/01/20 02:17:26;;;;;;;7.47;3.25;;;;;;;2.30;97.37;101273.38;4975390;28;20496;-92
2024/01/20 02:19:52;;;;;;;3.80;1.20;;;;;;;2.26;97.56;101275.09;4974205;28;20019;-93
2024/01/20 02:22:17;;;;;;;5.55;1.08;;;;;;;2.29;97.75;101274.22;4974084;28;20031;-94
2024/01/20 02:24:48;;;;;;;2.45;1.10;;;;;;;2.33;97.68;101278.44;4975552;28;20102;-94
2024/01/20 02:27:14;;;;;;;3.75;1.10;;;;;;;2.29;98.29;101279.31;4974019;28;20121;-92
2024/01/20 02:29:39;;;;;;;1.95;1.08;;;;;;;2.38;97.26;101276.69;4974020;28;20101;-93
2024/01/20 02:32:06;;;;;;;2.80;1.13;;;;;;;2.30;97.96;101279.31;4974903;28;20100;-93
2024/01/20 02:34:31;;;;;;;6.28;1.25;;;;;;;2.33;98.18;101286.09;4974717;28;20027;-94
2024/01/20 02:36:56;;;;;;;4.97;1.08;;;;;;;2.33;98.43;101278.44;4974032;28;20076;-94
2024/01/20 02:39:22;;;;;;;7.20;1.25;;;;;;;2.40;97.36;101274.97;4975531;28;20027;-94
2024/01/20 02:41:48;;;;;;;10.48;2.05;;;;;;;2.38;97.64;101265.66;4975090;28;20050;-93
2024/01/20 02:44:14;;;;;;;3.47;1.40;;;;;;;2.39;97.21;101260.56;4973979;28;20031;-94
2024/01/20 02:46:39;;;;;;;5.28;2.75;;;;;;;2.37;97.33;101257.19;4975002;28;20474;-93
2024/01/20 02:49:04;;;;;;;2.72;1.27;;;;;;;2.42;96.93;101257.13;4973691;28;20033;-94
2024/01/20 02:51:30;;;;;;;3.55;1.33;;;;;;;2.44;96.52;101256.25;4973649;28;20501;-93
2024/01/20 02:53:57;;;;;;;4.13;1.02;;;;;;;2.54;95.37;101257.84;4974737;28;20437;-93
2024/01/20 02:56:24;;;;;;;2.15;1.23;;;;;;;2.53;95.68;101266.31;4973491;28;20494;-94
2024/01/20 02:58:50;;;;;;;3.58;0.90;;;;;;;2.59;95.33;101262.06;4974744;28;20023;-93
2024/01/20 03:01:15;;;;;;;5.03;1.38;;;;;;;2.59;94.92;101264.59;4974666;28;20033;-94
2024/01/20 03:03:40;;;;;;;4.53;1.40;;;;;;;2.59;94.75;101260.34;4974770;28;20434;-93
2024/01/20 03:06:06;;;;;;;4.30;1.30;;;;;;;2.64;93.98;101268.78;4973128;28;20059;-93
2024/01/20 03:08:31;;;;;;;6.40;0.90;;;;;;;2.67;94.16;101275.53;4974531;28;20026;-92
2024/01/20 03:10:57;;;;;;;2.90;1.05;;;;;;;2.68;93.80;101261.91;4974647;28;20028;-93
2024/01/20 03:13:22;;;;;;;1.27;0.73;;;;;;;2.66;92.89;101261.09;4974219;28;20085;-93
2024/01/20 03:15:48;;;;;;;2.58;1.02;;;;;;;2.65;93.54;101270.44;4974104;28;20462;-93
2024/01/20 03:18:13;;;;;;;1.30;0.80;;;;;;;2.62;93.27;101265.41;4974762;28;20034;-93
2024/01/20 03:20:38;;;;;;;6.97;1.38;;;;;;;2.64;93.11;101257.75;4974407;28;20501;-93
2024/01/20 03:23:04;;;;;;;4.38;1.00;;;;;;;2.61;93.59;101260.31;4974551;28;20055;-93
2024/01/20 03:25:30;;;;;;;2.88;1.33;;;;;;;2.57;93.91;101256.97;4974160;28;20027;-92
2024/01/20 03:27:56;;;;;;;5.63;1.38;;;;;;;2.57;93.94;101255.25;4974083;28;20073;-94
2024/01/20 03:30:22;;;;;;;3.67;1.15;;;;;;;2.62;93.45;101250.09;4974147;28;20019;-93
2024/01/20 03:32:47;;;;;;;5.32;1.20;;;;;;;2.63;93.22;101246.69;4974038;28;20107;-94
2024/01/20 03:35:13;;;;;;;2.22;1.10;;;;;;;2.65;93.56;101247.50;4972958;28;20050;-92
2024/01/20 03:37:38;;;;;;;8.77;1.63;;;;;;;2.66;93.74;101248.34;4974310;28;20527;-92
2024/01/20 03:40:04;;;;;;;2.35;1.25;;;;;;;2.70;93.38;101244.91;4973952;28;20493;-94
2024/01/20 03:42:29;;;;;;;5.78;1.20;;;;;;;2.75;92.96;101250.78;4974345;28;20027;-92
2024/01/20 03:44:55;;;;;;;3.92;0.93;;;;;;;2.78;92.83;101250.78;4974359;28;20466;-93
2024/01/20 03:47:21;;;;;;;5.38;1.88;;;;;;;2.75;92.99;101240.59;4974253;28;20105;-92
2024/01/20 03:49:46;;;;;;;5.13;1.02;;;;;;;2.84;92.09;101243.03;4972696;28;20030;-93
2024/01/20 03:52:11;;;;;;;2.53;1.10;;;;;;;2.84;92.08;101235.38;4974169;28;20030;-93
2024/01/20 03:54:37;;;;;;;5.95;1.20;;;;;;;2.85;92.13;101231.97;4974392;28;20548;-93
2024/01/20 03:57:04;;;;;;;4.28;1.10;;;;;;;2.84;92.52;101240.50;4974424;28;20117;-92
2024/01/20 03:59:29;;;;;;;1.88;1.02;;;;;;;2.86;93.01;101233.66;4974184;28;20529;-93
2024/01/20 04:01:54;;;;;;;4.53;1.33;;;;;;;2.82;93.33;101226.91;4973977;28;20026;-93
2024/01/20 04:04:20;;;;;;;5.18;1.30;;;;;;;2.89;92.05;101228.53;4974197;28;20497;-92
2024/01/20 04:06:45;;;;;;;5.25;1.20;;;;;;;2.86;92.02;101238.78;4972848;28;20086;-93
2024/01/20 04:09:11;;;;;;;8.07;1.30;;;;;;;2.87;92.36;101240.44;4973052;28;20033;-92
2024/01/20 04:11:37;;;;;;;7.40;1.23;;;;;;;2.87;91.83;101230.25;4974168;28;20081;-94
2024/01/20 04:14:02;;;;;;;3.33;1.13;;;;;;;2.92;91.11;101248.88;4977855;28;20037;-93
2024/01/20 04:16:31;;;;;;;7.90;1.25;;;;;;;3.00;89.97;101241.16;4993176;28;20034;-93
2024/01/20 04:18:56;;;;;;;6.53;3.35;;;;;;;2.99;90.31;101247.94;4981159;28;20064;-92
2024/01/20 04:21:22;;;;;;;6.38;1.50;;;;;;;3.00;89.31;101236.06;4972649;28;20438;-93
2024/01/20 04:23:48;;;;;;;5.65;1.10;;;;;;;2.97;89.25;101247.09;4973739;28;20035;-93
2024/01/20 04:26:14;;;;;;;3.13;0.90;;;;;;;3.06;87.95;101232.56;4971317;28;20042;-92
2024/01/20 04:28:39;;;;;;;3.83;0.90;;;;;;;3.08;87.45;101228.28;4969459;28;20389;-93
2024/01/20 04:31:04;;;;;;;3.80;1.10;;;;;;;3.17;85.61;101230.69;4975174;28;20042;-94
2024/01/20 04:33:30;;;;;;;3.55;1.05;;;;;;;3.10;85.48;101231.66;4978833;28;20120;-93
2024/01/20 04:35:55;;;;;;;6.88;2.45;;;;;;;3.13;84.18;101231.63;4991243;28;20097;-94
2024/01/20 04:38:21;;;;;;;3.28;1.08;;;;;;;3.22;82.22;101234.88;4991770;28;20031;-93
2024/01/20 04:40:46;;;;;;;4.93;0.98;;;;;;;3.24;81.87;101229.75;4990884;28;20434;-92
2024/01/20 04:43:12;;;;;;;1.67;0.90;;;;;;;3.26;79.78;101235.66;4990409;28;20034;-93
2024/01/20 04:45:38;;;;;;;2.88;1.10;;;;;;;3.32;79.50;101243.25;4992196;28;20026;-92
2024/01/20 04:48:04;;;;;;;3.13;0.98;;;;;;;3.28;78.80;101241.59;4991593;28;20022;-93
2024/01/20 04:50:29;;;;;;;2.05;0.65;;;;;;;3.32;78.30;101233.03;4991814;28;20031;-93
2024/01/20 04:52:55;;;;;;;6.45;1.05;;;;;;;3.31;77.79;101246.66;4991140;28;20076;-93
2024/01/20 04:55:20;;;;;;;4.53;0.80;;;;;;;3.30;76.75;101244.97;4981324;28;20117;-92
2024/01/20 04:57:45;;;;;;;2.47;1.10;;;;;;;3.36;75.97;101249.97;4972896;28;20031;-92
2024/01/20 05:00:11;;;;;;;2.88;0.80;;;;;;;3.40;75.13;101251.63;4973299;28;20019;-92
2024/01/20 05:02:37;;;;;;;5.75;0.95;;;;;;;3.43;76.17;101246.47;4971631;28;20027;-92
2024/01/20 05:05:03;;;;;;;2.88;1.02;;;;;;;3.41;76.02;101237.16;4969751;28;20027;-93
2024/01/20 05:07:29;;;;;;;7.97;2.28;;;;;;;3.40;75.51;101233.75;4972820;28;20037;-91
2024/01/20 05:09:54;;;;;;;5.97;1.65;;;;;;;3.35;76.10;101227.88;4971905;28;20031;-92
2024/01/20 05:12:20;;;;;;;6.63;1.23;;;;;;;3.47;76.42;101241.34;4973051;28;20050;-93
2024/01/20 05:14:45;;;;;;;2.15;0.80;;;;;;;3.41;76.56;101240.56;4971692;28;20031;-92
2024/01/20 05:17:10;;;;;;;6.65;1.00;;;;;;;3.40;76.72;101240.56;4982501;28;20078;-93
2024/01/20 05:19:39;;;;;;;3.20;0.90;;;;;;;3.41;76.93;101243.13;4992446;28;20022;-93
2024/01/20 05:22:04;;;;;;;4.07;0.98;;;;;;;3.40;77.24;101236.31;4974979;28;20077;-92
2024/01/20 05:24:30;;;;;;;4.43;0.95;;;;;;;3.40;77.17;101243.97;4971298;28;20110;-93
2024/01/20 05:26:55;;;;;;;3.42;0.88;;;;;;;3.33;77.62;101228.78;4972435;28;20358;-93
2024/01/20 05:29:21;;;;;;;6.32;1.05;;;;;;;3.41;77.43;101230.34;4972751;28;20027;-92
2024/01/20 05:31:46;;;;;;;4.45;1.17;;;;;;;3.41;77.68;101222.72;4972613;28;20481;-92
2024/01/20 05:34:12;;;;;;;2.80;0.85;;;;;;;3.42;77.86;101218.44;4972743;28;20030;-93
2024/01/20 05:36:37;;;;;;;4.95;0.93;;;;;;;3.47;77.67;101220.91;4972881;28;20417;-93
2024/01/20 05:39:04;;;;;;;4.38;1.20;;;;;;;3.48;78.43;101220.03;4971596;28;20026;-92
2024/01/20 05:41:29;;;;;;;4.40;1.08;;;;;;;3.52;78.35;101226.78;4974837;28;20027;-93
2024/01/20 05:43:54;;;;;;;4.45;0.80;;;;;;;3.50;79.32;101218.31;4975606;28;20122;-92
2024/01/20 05:46:20;;;;;;;10.50;1.00;;;;;;;3.54;79.26;101227.63;4974668;28;20131;-93
2024/01/20 05:48:45;;;;;;;6.03;1.30;;;;;;;3.60;79.20;101222.41;4975959;28;20038;-92
2024/01/20 05:51:10;;;;;;;2.05;0.80;;;;;;;3.60;79.06;101227.50;4974319;28;20030;-92
2024/01/20 05:53:36;;;;;;;8.63;1.25;;;;;;;3.59;79.48;101231.78;4974810;28;20051;-93
2024/01/20 05:56:01;;;;;;;6.30;1.20;;;;;;;3.59;78.85;101230.94;4975882;28;20031;-93
2024/01/20 05:58:27;;;;;;;5.88;1.08;;;;;;;3.60;78.87;101228.34;4975667;28;20019;-93
2024/01/20 06:00:52;;;;;;;4.72;0.77;;;;;;;3.71;77.01;101228.19;4975611;28;20034;-93
2024/01/20 06:03:18;;;;;;;7.25;1.02;;;;;;;3.63;77.09;101228.31;4974527;28;20023;-92
2024/01/20 06:05:43;;;;;;;6.68;1.25;;;;;;;3.68;76.66;101229.94;4975537;28;20051;-93
2024/01/20 06:08:08;;;;;;;1.85;0.80;;;;;;;3.65;76.03;101235.94;4974414;28;20033;-92
2024/01/20 06:10:34;;;;;;;4.25;0.80;;;;;;;3.64;75.97;101235.09;4975464;28;20023;-92
2024/01/20 06:12:59;;;;;;;3.97;1.10;;;;;;;3.56;75.91;101226.72;4975438;28;20030;-92
2024/01/20 06:15:24;;;;;;;3.78;0.90;;;;;;;3.60;76.08;101224.94;4975453;28;20081;-93
2024/01/20 06:17:50;;;;;;;3.60;0.88;;;;;;;3.56;76.32;101221.63;4975283;28;20034;-93
2024/01/20 06:20:15;;;;;;;4.53;1.00;;;;;;;3.52;76.57;101231.91;4975478;28;20027;-92
2024/01/20 06:22:41;;;;;;;3.05;1.00;;;;;;;3.63;76.33;101214.69;4975193;28;20078;-92
2024/01/20 06:25:07;;;;;;;2.33;1.00;;;;;;;3.59;76.65;101221.56;4973894;28;20117;-92
2024/01/20 06:27:33;;;;;;;6.63;1.10;;;;;;;3.57;76.57;101227.56;4975271;28;20086;-93
2024/01/20 06:29:59;;;;;;;5.13;1.13;;;;;;;3.63;76.40;101224.91;4975093;28;20485;-92
2024/01/20 06:32:24;;;;;;;2.42;0.93;;;;;;;3.52;77.34;101232.72;4975109;28;20067;-92
2024/01/20 06:34:50;;;;;;;2.03;0.80;;;;;;;3.57;77.30;101242.88;4975312;28;20026;-92
2024/01/20 06:37:15;;;;;;;3.00;1.00;;;;;;;3.49;77.88;101245.56;4973787;28;20038;-92
2024/01/20 06:39:42;;;;;;;6.25;1.20;;;;;;;3.50;77.71;101241.28;4974951;28;20019;-92
2024/01/20 06:42:10;;;;;;;12.68;1.25;;;;;;;3.52;77.30;101242.09;4973603;28;20074;-92
2024/01/20 06:44:35;;;;;;;3.78;0.80;;;;;;;3.54;77.96;101248.03;4974978;28;20046;-92
2024/01/20 06:47:00;;;;;;;7.25;1.10;;;;;;;3.47;77.59;101241.34;4973810;28;20481;-92
2024/01/20 06:49:26;;;;;;;4.32;0.93;;;;;;;3.45;78.19;101235.41;4973239;28;20081;-92
2024/01/20 06:51:51;;;;;;;4.13;0.90;;;;;;;3.41;78.16;101235.47;4974111;28;20027;-92
2024/01/20 06:54:16;;;;;;;2.40;0.80;;;;;;;3.38;78.54;101227.84;4973359;28;20027;-93
2024/01/20 06:56:42;;;;;;;4.55;1.10;;;;;;;3.41;78.55;101226.94;4974616;28;20033;-92
2024/01/20 06:59:08;;;;;;;4.25;1.25;;;;;;;3.38;78.68;101229.53;4974502;28;20037;-92
2024/01/20 07:01:33;;;;;;;5.38;0.82;;;;;;;3.32;79.26;101227.94;4973162;28;20474;-92
2024/01/20 07:03:58;;;;;;;5.88;0.93;;;;;;;3.34;81.04;101226.22;4974990;28;20019;-92
2024/01/20 07:06:24;;;;;;;3.90;0.93;;;;;;;3.29;80.04;101227.13;4974785;28;20478;-92
2024/01/20 07:08:50;;;;;;;9.38;1.42;;;;;;;3.34;80.23;101233.88;4974849;28;20034;-92
2024/01/20 07:11:15;;;;;;;5.90;1.10;;;;;;;3.27;80.26;101234.81;4994282;28;20030;-92
2024/01/20 07:13:41;;;;;;;5.57;0.90;;;;;;;3.27;80.02;101219.50;4992624;28;20022;-91
2024/01/20 07:16:11;;;;;;;2.50;0.95;;;;;;;3.31;79.45;101226.22;4993834;28;20022;-92
2024/01/20 07:18:36;;;;;;;1.65;0.82;;;;;;;3.29;79.78;101233.09;4993665;28;20492;-92
2024/01/20 07:21:02;;;;;;;5.68;1.13;;;;;;;3.31;80.12;101239.00;4992514;28;20026;-92
2024/01/20 07:23:27;;;;;;;7.20;1.55;;;;;;;3.26;80.64;101243.31;4993851;28;20098;-92
2024/01/20 07:25:53;;;;;;;3.25;1.02;;;;;;;3.22;81.10;101241.69;4992307;28;20022;-92
2024/01/20 07:28:18;;;;;;;4.47;1.10;;;;;;;3.25;80.76;101240.81;4992411;28;20558;-92
2024/01/20 07:30:43;;;;;;;3.00;0.98;;;;;;;3.24;81.31;101239.09;4992726;28;20022;-92
2024/01/20 07:33:09;;;;;;;4.32;0.82;;;;;;;3.28;80.95;101246.69;4993784;28;20069;-91
2024/01/20 07:35:34;;;;;;;4.13;1.00;;;;;;;3.27;81.06;101239.06;4992497;28;20030;-92
2024/01/20 07:37:59;;;;;;;7.60;1.73;;;;;;;3.30;81.31;101242.41;4979795;28;20019;-93
2024/01/20 07:40:25;;;;;;;4.35;0.95;;;;;;;3.26;81.58;101243.31;4988037;28;20041;-92
2024/01/20 07:42:50;;;;;;;4.03;1.00;;;;;;;3.26;82.24;101234.81;4991006;28;20037;-91
2024/01/20 07:45:16;;;;;;;3.45;0.88;;;;;;;3.24;82.78;101237.38;4972986;28;20035;-92
2024/01/20 07:47:41;;;;;;;5.35;1.30;;;;;;;3.28;82.79;101244.16;4972677;28;20030;-91
2024/01/20 07:50:07;;;;;;;6.97;1.55;;;;;;;3.31;82.95;101236.44;4974080;28;20388;-91
2024/01/20 07:52:33;;;;;;;6.45;1.83;;;;;;;3.28;83.17;101226.28;4974216;28;20318;-92
2024/01/20 07:54:58;;;;;;;4.72;1.35;;;;;;;3.31;83.83;101231.34;4974401;28;20661;-92
2024/01/20 07:57:23;;;;;;;8.73;1.30;;;;;;;3.33;83.64;101227.06;4991686;28;20034;-90
2024/01/20 07:59:49;;;;;;;7.60;2.13;;;;;;;3.28;84.50;101231.38;4979551;28;20054;-90
2024/01/20 08:02:14;;;;;;;7.18;1.42;;;;;;;3.25;84.90;101226.34;4973358;28;20023;-91
2024/01/20 08:04:40;;;;;;;7.20;1.33;;;;;;;3.34;85.92;101228.75;4972163;28;20117;-89
2024/01/20 08:07:05;;;;;;;5.30;1.95;;;;;;;3.41;85.24;101232.03;4973406;28;20049;-90
2024/01/20 08:09:30;;;;;;;2.65;1.17;;;;;;;3.41;86.28;101238.00;4973374;28;20109;-91
2024/01/20 08:11:56;;;;;;;6.57;1.17;;;;;;;3.46;85.51;101231.97;4972248;28;20030;-91
2024/01/20 08:14:21;;;;;;;6.30;1.27;;;;;;;3.41;86.00;101232.91;4971687;28;20031;-89
2024/01/20 08:16:46;;;;;;;6.32;1.98;;;;;;;3.42;86.50;101241.41;4971835;28;20034;-90
2024/01/20 08:19:12;;;;;;;5.55;1.52;;;;;;;3.46;87.47;101239.63;4973421;28;20106;-93
2024/01/20 08:21:37;;;;;;;7.30;1.52;;;;;;;3.46;87.86;101226.88;4973931;28;20032;-94
2024/01/20 08:24:03;;;;;;;3.75;1.08;;;;;;;3.41;89.20;101232.03;4972955;28;20477;-94
2024/01/20 08:26:32;;;;;;;4.28;1.42;;;;;;;3.44;89.86;101232.03;4972774;28;20448;-91
2024/01/20 08:28:57;;;;;;;7.85;1.90;;;;;;;3.45;90.23;101223.47;4972269;28;20023;-93
2024/01/20 08:31:23;;;;;;;2.33;1.15;;;;;;;3.46;90.63;101219.22;4972310;28;20118;-91
2024/01/20 08:33:48;;;;;;;8.48;3.03;;;;;;;3.52;91.20;101224.25;4973021;28;20027;-92
2024/01/20 08:36:13;;;;;;;9.30;1.15;;;;;;;3.54;91.54;101217.41;4973331;28;20062;-92
2024/01/20 08:38:39;;;;;;;4.25;1.30;;;;;;;3.57;91.71;101218.19;4973054;28;20030;-93
2024/01/20 08:41:08;;;;;;;7.28;1.30;;;;;;;3.59;91.76;101210.53;4973847;28;20068;-93
2024/01/20 08:43:35;;;;;;;9.18;1.65;;;;;;;3.60;92.57;101213.03;4979926;28;20088;-92
2024/01/20 08:46:01;;;;;;;10.23;1.90;;;;;;;3.57;92.85;101218.19;4992825;28;20019;-91
2024/01/20 08:48:29;;;;;;;10.48;1.48;;;;;;;3.63;93.08;101222.34;4993075;28;20030;-92
2024/01/20 08:50:54;;;;;;;8.00;1.25;;;;;;;3.62;93.39;101223.22;4992862;28;20018;-93
2024/01/20 08:53:20;;;;;;;6.07;1.60;;;;;;;3.64;93.70;101221.50;4973562;28;20031;-93
2024/01/20 08:55:45;;;;;;;8.07;1.50;;;;;;;3.67;94.21;101212.94;4979261;28;20037;-92
2024/01/20 08:58:10;;;;;;;6.88;1.45;;;;;;;3.74;94.03;101217.06;4987805;28;20484;-92
2024/01/20 09:00:36;;;;;;;11.07;2.25;;;;;;;3.67;95.03;101224.00;4978994;28;20030;-92
2024/01/20 09:03:01;;;;;;;13.20;1.48;;;;;;;3.65;94.83;101218.91;4972998;28;20027;-91
2024/01/20 09:05:33;;;;;;;10.13;1.45;;;;;;;3.65;96.19;101211.25;4978396;28;20050;-96
2024/01/20 09:07:58;;;;;;;;;;;;;;;3.74;96.68;101215.38;4975703;28;20030;-94
2024/01/20 09:10:24;;;;;;;10.70;2.13;;;;;;;3.71;96.80;101205.22;4972091;28;19921;-93
2024/01/20 09:12:49;;;;;;;6.90;1.42;;;;;;;3.77;96.79;101207.66;4972233;28;20038;-95
2024/01/20 09:15:14;;;;;;;9.45;1.73;;;;;;;3.76;97.26;101205.97;4975744;28;20037;-92
2024/01/20 09:17:40;;;;;;;4.65;1.67;;;;;;;3.80;97.32;101210.16;4976048;28;20031;-94
2024/01/20 09:20:06;;;;;;;14.02;3.00;;;;;;;3.81;98.42;101211.84;4977904;28;20105;-94
2024/01/20 09:22:31;;;;;;;9.30;1.80;;;;;;;3.81;98.96;101205.91;4975377;28;20027;-93
2024/01/20 09:24:58;;;;;;;9.40;1.45;;;;;;;3.83;100.00;101215.22;4977106;28;20503;-93
2024/01/20 09:27:24;;;;;;;9.07;1.70;;;;;;;3.88;100.00;101206.63;4976036;28;20022;-94
2024/01/20 09:29:49;;;;;;;11.05;2.13;;;;;;;3.96;100.00;101208.19;4975622;28;20031;-93
2024/01/20 09:32:15;;;;;;;10.40;1.98;;;;;;;3.95;100.00;101208.19;4975618;28;20023;-93
2024/01/20 09:34:40;;;;;;;14.43;2.05;;;;;;;3.97;100.00;101207.28;4975157;28;20034;-92
2024/01/20 09:37:05;;;;;;;13.32;2.00;;;;;;;4.05;100.00;101204.63;4974999;28;20030;-94
2024/01/20 09:39:31;;;;;;;15.43;2.22;;;;;;;4.05;100.00;101208.03;4975817;28;20422;-95
2024/01/20 09:41:57;;;;;;;7.35;1.80;;;;;;;4.01;100.00;101203.00;4975512;28;20026;-94
2024/01/20 09:44:23;;;;;;;5.82;1.85;;;;;;;4.06;100.00;101212.25;4975940;28;20529;-91
2024/01/20 09:46:49;;;;;;;8.48;2.03;;;;;;;4.05;100.00;101204.63;4976526;28;20117;-92
2024/01/20 09:49:15;;;;;;;8.65;2.03;;;;;;;4.09;100.00;101211.34;4974588;28;20030;-93
2024/01/20 09:51:52;;;;;;;10.20;2.00;;;;;;;4.16;100.00;101207.81;4976694;28;20485;-94
2024/01/20 09:54:21;;;;;;;8.60;2.22;;;;;;;4.16;100.00;101212.91;4975966;28;20037;-93
2024/01/20 09:56:47;;;;;;;7.03;1.80;;;;;;;4.14;100.00;101204.44;4975081;28;20027;-92
2024/01/20 09:59:14;;;;;;;9.93;2.00;;;;;;;4.25;100.00;101206.81;4975069;28;20113;-93
2024/01/20 10:01:41;;;;;;;7.53;1.65;;;;;;;4.26;100.00;101188.88;4975907;28;20026;-94
2024/01/20 10:04:09;;;;;;;11.05;2.50;;;;;;;4.28;100.00;101189.69;4975684;28;20031;-95
2024/01/20 10:06:34;;;;;;;11.70;2.10;;;;;;;4.28;100.00;101187.13;4975210;28;20033;-94
2024/01/20 10:09:00;;;;;;;6.57;1.90;;;;;;;4.35;100.00;101197.25;4976237;28;20098;-94
2024/01/20 10:11:26;;;;;;;16.05;2.38;;;;;;;4.46;100.00;101192.75;4974685;28;20055;-94
2024/01/20 10:13:52;;;;;;;8.32;2.00;;;;;;;4.51;100.00;101201.16;4977089;28;20031;-95
2024/01/20 10:16:20;;;;;;;13.65;1.88;;;;;;;4.59;100.00;101199.31;4977211;28;20041;-92
2024/01/20 10:18:45;;;;;;;3.67;1.95;;;;;;;4.68;100.00;101201.69;4975008;28;20389;-93
2024/01/20 10:21:11;;;;;;;19.60;2.60;;;;;;;4.69;100.00;101207.63;4974142;28;20018;-94
2024/01/20 10:23:39;;;;;;;14.38;2.20;;;;;;;4.75;100.00;101199.81;4975399;28;20126;-91
2024/01/20 10:26:07;;;;;;;10.77;2.55;;;;;;;4.81;100.00;101194.59;4973683;28;20489;-95
2024/01/20 10:28:33;;;;;;;8.73;2.42;;;;;;;5.11;100.00;101193.06;4977721;28;20026;-94
2024/01/20 10:31:05;;;;;;;10.23;2.05;;;;;;;5.19;100.00;101181.81;4973381;28;20085;-93
2024/01/20 10:33:31;;;;;;;7.00;1.77;;;;;;;5.12;100.00;101179.41;4957091;28;20035;-94
2024/01/20 10:36:05;;;;;;;11.63;2.10;;;;;;;4.99;100.00;101175.44;4969705;28;20492;-96
2024/01/20 10:38:36;;;;;;;8.70;2.45;;;;;;;5.03;100.00;101181.34;4981392;28;20015;-93
2024/01/20 10:41:22;;;;;;;8.00;2.30;;;;;;;4.95;100.00;101184.06;4981108;28;20011;-95
2024/01/20 10:43:56;;;;;;;11.98;2.53;;;;;;;5.01;100.00;101176.25;4980233;28;20039;-96
2024/01/20 10:46:24;;;;;;;7.30;1.40;;;;;;;5.02;100.00;101180.47;4983994;28;20031;-96
2024/01/20 10:48:53;;;;;;;8.07;2.22;;;;;;;5.05;100.00;101184.72;4993629;28;20034;-96
2024/01/20 10:51:40;;;;;;;13.07;2.30;;;;;;;5.02;100.00;101185.59;4983504;28;20030;-96
2024/01/20 10:54:07;;;;;;;11.88;2.25;;;;;;;5.02;100.00;101184.75;4987103;28;20049;-96
2024/01/20 10:56:35;;;;;;;6.00;2.55;;;;;;;5.04;100.00;101183.84;4987792;28;20031;-95
2024/01/20 10:59:07;;;;;;;7.13;1.60;;;;;;;5.12;100.00;101184.53;5000971;28;20493;-96
2024/01/20 11:01:33;;;;;;;;;;;;;;;5.04;100.00;101191.53;4993722;28;20040;-94
2024/01/20 11:03:58;;;;;;;7.82;2.33;;;;;;;5.07;100.00;101186.34;4976082;28;20428;-96
2024/01/20 11:06:27;;;;;;;12.35;2.30;;;;;;;5.11;100.00;101174.31;4986941;28;20030;-96
2024/01/20 11:09:01;;;;;;;12.25;2.13;;;;;;;5.28;100.00;101181.59;4989752;28;20022;-96
2024/01/20 11:11:34;;;;;;;11.05;2.53;;;;;;;5.19;100.00;101172.41;4982269;28;20035;-96
2024/01/20 11:14:01;;;;;;;14.05;2.22;;;;;;;5.38;100.00;101175.38;4977696;28;20051;-96
2024/01/20 11:16:31;;;;;;;10.55;2.08;;;;;;;5.36;100.00;101157.53;4979082;28;20053;-96
2024/01/20 11:19:11;;;;;;;12.57;2.78;;;;;;;5.37;100.00;101160.91;4976573;28;20039;-95
2024/01/20 11:21:38;;;;;;;10.57;2.15;;;;;;;5.51;100.00;101174.22;4976042;28;20500;-95
2024/01/20 11:24:06;;;;;;;20.10;2.80;;;;;;;5.58;100.00;101164.66;4973659;28;20031;-96
2024/01/20 11:26:36;;;;;;;9.65;2.13;;;;;;;5.56;100.00;101157.03;4973661;28;20030;-93